METAR Data
IDs: Format: Raw Decoded Include TAF

Data at: 1722 UTC 21 Sep 2019

METAR for:KEIK (Erie Muni, CO, US)
Text:KEIK 211712Z AUTO 16006KT 10SM CLR 22/M04 A3006 RMK AO2 T02201038
Temperature: 22.0°C ( 72°F)
Dewpoint: -3.8°C ( 25°F) [RH = 17%]
Pressure (altimeter):30.06 inches Hg (1018.0 mb)
Winds:from the SSE (160 degrees) at 7 MPH (6 knots; 3.1 m/s)
Visibility:10 or more sm (16+ km)
Ceiling:at least 12,000 feet AGL
Clouds:sky clear below 12,000 feet AGL
QC Flag:automated observation with no human augmentation